Main page
METAR-TAF:

METAR-TAF

Airports :

Berlin Tegel Airport

Berlin, Germany

latitude: 52-34N, longitude: 013-19E, elevation: 37 m

Current weather observation

The report was made 31 minutes ago, at 03:50 UTC
Wind 1 kt from variable directions
Temperature 7°C
Humidity 93%
Pressure 1019 hPa
Visibility 10 km or more
no clouds below 1500 m and no cumulonimbus

METAR: EDDT 170350Z VRB01KT CAVOK 07/06 Q1019 NOSIG

Time: 06:21 (04:21 UTC)

Forecast

The report was made 5 hours and 21 minutes ago, at 23:00 UTC
Forecast valid from 17 at 00 UTC to 17 at 24 UTC
Wind 2 kt from variable directions
Visibility 10 km or more
no clouds below 1500 m and no cumulonimbus

TAF: EDDT 162300Z 1700/1724 VRB02KT CAVOK

Weather observations and forecasts of more than 4000 airports (METAR and TAF reports).

The available stations are represented by yellow and red dots on the map.

Hover mouse over dot to see the name of the station.

Then click to see weather observations and forecasts.

To change the map : click on the green buttons with a black cross to zoom in, on the green button with a dash to zoom out, or on the green arrows for adjacent maps.


METAR-TAF: